D/T METAR WX W/SPE G/SPE TEMP DEWP FEEL
31/01/23 13:03 EGVO 311303Z 26018KT 9999 SCT020 BKN250 11/06 Q1024 TEMPO SCT025 RMK WHT TEMPO BLU 20.7mph 11°C 6°C 10.6°C
31/01/23 12:20 EGVO 311220Z 25015G25KT 9999 FEW016 BKN250 10/07 Q1024 TEMPO SCT020 RMK BLU TEMPO WHT 17.3mph 28.8mph 10°C 7°C 10.0°C
31/01/23 07:20 EGVO 310720Z AUTO 22012KT 9999 OVC013/// 05/04 Q1024 13.8mph 5°C 4°C 4.0°C
31/01/23 06:50 EGVO 310650Z AUTO 22011KT 9999 OVC013/// 05/03 Q1025 12.7mph 5°C 3°C 3.7°C
31/01/23 05:50 EGVO 310550Z AUTO 24011KT 9999 SCT016/// BKN041/// 05/03 Q1025 12.7mph 5°C 3°C 3.7°C
31/01/23 04:20 EGVO 310420Z AUTO 23011KT 9999 OVC036/// 05/03 Q1025 12.7mph 5°C 3°C 3.7°C
30/01/23 21:50 EGVO 302150Z 22007KT CAVOK 03/01 Q1028 NOSIG RMK BLU BLU 8.1mph 3°C 1°C 1.1°C
30/01/23 12:50 EGVO 301250Z 29012KT 9999 FEW029 SCT170 BKN250 08/02 Q1026 NOSIG RMK BLU BLU 13.8mph 8°C 2°C 6.4°C
30/01/23 11:50 EGVO 301150Z 29012KT 9999 FEW020 BKN180 08/02 Q1026 NOSIG RMK BLU BLU 13.8mph 8°C 2°C 6.4°C
30/01/23 10:50 EGVO 301050Z 29010KT CAVOK 07/02 Q1025 NOSIG RMK BLU BLU 11.5mph 7°C 2°C 5.4°C
30/01/23 10:20 EGVO 301020Z 28009KT 9999 FEW040 SCT190 BKN300 07/02 Q1025 NOSIG RMK BLU BLU 10.4mph 7°C 2°C 5.4°C
30/01/23 09:50 EGVO 300950Z 26008KT 9999 FEW040 SCT190 BKN300 06/01 Q1025 NOSIG RMK BLU BLU 9.2mph 6°C 1°C 4.1°C
30/01/23 07:50 EGVO 300750Z AUTO 27008KT 9999 NCD 05/02 Q1024 9.2mph 5°C 2°C 3.4°C
09/01/23 06:20 EGVO 090620Z AUTO 24013KT 9999 SCT160/// 06/04 Q0995 15.0mph 6°C 4°C 5.0°C
09/01/23 05:50 EGVO 090550Z AUTO 24014KT 9999 SCT170/// 06/04 Q0995 16.1mph 6°C 4°C 5.0°C
09/01/23 05:20 EGVO 090520Z AUTO 24014KT 9999 SCT150/// 06/04 Q0995 16.1mph 6°C 4°C 5.0°C
09/01/23 04:50 EGVO 090450Z AUTO 24012KT 9999 SCT017/// 06/04 Q0994 13.8mph 6°C 4°C 5.0°C
09/01/23 04:20 EGVO 090420Z AUTO 23016KT 9999 NCD 06/05 Q0994 18.4mph 6°C 5°C 5.3°C
09/01/23 03:50 EGVO 090350Z AUTO 24018KT 9999 NCD 06/04 Q0993 20.7mph 6°C 4°C 5.0°C
09/01/23 03:20 EGVO 090320Z AUTO 24015KT 9999 NCD 06/04 Q0993 17.3mph 6°C 4°C 5.0°C
09/01/23 02:50 EGVO 090250Z AUTO 24014KT 9999 NCD 06/04 Q0992 16.1mph 6°C 4°C 5.0°C
09/01/23 02:20 EGVO 090220Z AUTO 24014KT 9999 NCD 06/04 Q0992 16.1mph 6°C 4°C 5.0°C
09/01/23 01:20 EGVO 090120Z AUTO 25015KT 9999 // FEW014/// 06/04 Q0991 17.3mph 6°C 4°C 5.0°C
09/01/23 00:50 EGVO 090050Z AUTO 26015KT 9999 -RA BKN008/// OVC038/// 07/05 Q0990 -RA 17.3mph 7°C 5°C 6.3°C
09/01/23 00:20 EGVO 090020Z AUTO 25014KT 9999 -DZ OVC007/// 06/05 Q0989 -DZ 16.1mph 6°C 5°C 5.3°C
08/01/23 23:50 EGVO 082350Z AUTO 25014KT 9999 // OVC011/// 06/05 Q0989 16.1mph 6°C 5°C 5.3°C
08/01/23 23:20 EGVO 082320Z AUTO 23013KT 9999 -RA OVC010/// 07/05 Q0988 -RA 15.0mph 7°C 5°C 6.3°C
08/01/23 22:50 EGVO 082250Z AUTO 21010KT 8000 -RA OVC014/// 07/05 Q0987 -RA 11.5mph 7°C 5°C 6.3°C
08/01/23 22:20 EGVO 082220Z AUTO 18013KT 9999 // FEW014/// BKN023/// 07/05 Q0987 15.0mph 7°C 5°C 6.3°C
08/01/23 21:50 EGVO 082150Z AUTO 17013KT 9999 // FEW013/// BKN038/// 06/05 Q0988 15.0mph 6°C 5°C 5.3°C
08/01/23 20:20 EGVO 082020Z AUTO 16008KT 9999 SCT044/// 05/03 Q0989 9.2mph 5°C 3°C 3.7°C
08/01/23 19:20 EGVO 081920Z AUTO 19010KT 9999 NCD 05/03 Q0989 11.5mph 5°C 3°C 3.7°C
08/01/23 18:50 EGVO 081850Z AUTO 20009KT 9999 NCD 05/03 Q0990 10.4mph 5°C 3°C 3.7°C
08/01/23 18:20 EGVO 081820Z AUTO 20010KT 9999 NCD 05/03 Q0990 11.5mph 5°C 3°C 3.7°C
08/01/23 17:50 EGVO 081750Z AUTO 21009KT 9999 FEW028/// 05/03 Q0990 10.4mph 5°C 3°C 3.7°C
08/01/23 17:20 EGVO 081720Z AUTO 23014KT 9999 // FEW028/// 06/04 Q0990 16.1mph 6°C 4°C 5.0°C
08/01/23 16:50 EGVO 081650Z AUTO 24016KT 9999 // BKN013/// SCT042/// 06/04 Q0989 18.4mph 6°C 4°C 5.0°C
08/01/23 16:20 EGVO 081620Z AUTO 22016G26KT 3000 RA OVC012/// 07/05 Q0989 RA 18.4mph 29.9mph 7°C 5°C 6.3°C
08/01/23 15:50 EGVO 081550Z AUTO 18017KT 9999 -RA FEW009/// BKN041/// 07/05 Q0988 -RA 19.6mph 7°C 5°C 6.3°C
08/01/23 15:20 EGVO 081520Z AUTO 18013KT 9999 -RA FEW025/// BKN041/// BKN067/// 07/05 Q0988 -RA 15.0mph 7°C 5°C 6.3°C
08/01/23 14:20 EGVO 081420Z AUTO 19016KT 9999 -RA OVC039/// 07/05 Q0989 -RA 18.4mph 7°C 5°C 6.3°C
08/01/23 13:50 EGVO 081350Z AUTO 19018KT 9999 -RA FEW011/// BKN030/// 07/06 Q0989 -RA 20.7mph 7°C 6°C 6.6°C
08/01/23 13:20 EGVO 081320Z AUTO 19022KT 5000 RA SCT013/// OVC026/// 08/07 Q0989 RA 25.3mph 8°C 7°C 8.0°C
08/01/23 12:50 EGVO 081250Z AUTO 20019G33KT 4100 RA FEW011/// OVC017/// 08/06 Q0990 RA 21.9mph 38.0mph 8°C 6°C 7.6°C
08/01/23 12:20 EGVO 081220Z AUTO 19012G22KT 9999 RA FEW013/// OVC020/// 08/07 Q0990 RA 13.8mph 25.3mph 8°C 7°C 8.0°C
08/01/23 11:50 EGVO 081150Z AUTO 20018G28KT 2600 RA FEW011/// OVC023/// 07/05 Q0991 RA 20.7mph 32.2mph 7°C 5°C 6.3°C
08/01/23 11:20 EGVO 081120Z AUTO 20020KT 9999 -RA FEW033/// OVC042/// 07/05 Q0992 -RA 23.0mph 7°C 5°C 6.3°C
08/01/23 10:50 EGVO 081050Z AUTO 21022G41KT 3300 +RA OVC009/// 07/05 Q0993 +RA 25.3mph 47.2mph 7°C 5°C 6.3°C
08/01/23 10:20 EGVO 081020Z AUTO 19015G26KT 9999 -RA OVC012/// 08/07 Q0992 -RA 17.3mph 29.9mph 8°C 7°C 8.0°C
08/01/23 09:50 EGVO 080950Z AUTO 19014KT 2900 RA SCT011/// OVC023/// 07/06 Q0993 RA 16.1mph 7°C 6°C 6.6°C
08/01/23 09:20 EGVO 080920Z AUTO 19013KT 9999 RA FEW012/// OVC016/// 07/06 Q0993 RA 15.0mph 7°C 6°C 6.6°C
08/01/23 08:50 EGVO 080850Z AUTO 18013KT 8000 RA SCT010/// BKN025/// 07/06 Q0993 RA 15.0mph 7°C 6°C 6.6°C
08/01/23 08:20 EGVO 080820Z AUTO 18014KT 9999 -RA FEW010/// OVC026/// 07/06 Q0994 -RA 16.1mph 7°C 6°C 6.6°C
08/01/23 07:50 EGVO 080750Z AUTO 16009KT 9999 FEW021/// 06/05 Q0994 10.4mph 6°C 5°C 5.3°C
08/01/23 07:20 EGVO 080720Z AUTO 17010KT 9999 // OVC026/// 06/04 Q0994 11.5mph 6°C 4°C 5.0°C
08/01/23 06:50 EGVO 080650Z AUTO 18015KT 9999 -DZ OVC028/// 06/05 Q0995 -DZ 17.3mph 6°C 5°C 5.3°C
08/01/23 06:20 EGVO 080620Z AUTO 18014KT 9999 -RA FEW036/// 06/05 Q0995 -RA 16.1mph 6°C 5°C 5.3°C
08/01/23 05:50 EGVO 080550Z AUTO 19014KT 9999 // FEW031/// OVC100/// 06/05 Q0994 16.1mph 6°C 5°C 5.3°C
08/01/23 05:20 EGVO 080520Z AUTO 18009KT 9999 // FEW059/// SCT140/// 06/05 Q0995 10.4mph 6°C 5°C 5.3°C
08/01/23 04:50 EGVO 080450Z AUTO 18012KT 9999 // BKN037/// 06/05 Q0995 13.8mph 6°C 5°C 5.3°C
08/01/23 04:20 EGVO 080420Z AUTO 19011KT 9999 -RA FEW032/// 06/05 Q0995 -RA 12.7mph 6°C 5°C 5.3°C
08/01/23 03:50 EGVO 080350Z AUTO 19016KT 9999 -RA SCT034/// 07/05 Q0996 -RA 18.4mph 7°C 5°C 6.3°C
08/01/23 03:20 EGVO 080320Z AUTO 21014KT 9999 RA SCT013/// SCT033/// 07/05 Q0996 RA 16.1mph 7°C 5°C 6.3°C
08/01/23 02:50 EGVO 080250Z AUTO 17013KT 8000 RA OVC014/// 07/06 Q0996 RA 15.0mph 7°C 6°C 6.6°C
08/01/23 02:20 EGVO 080220Z AUTO 18014KT 9999 // SCT023/// 08/05 Q0996 16.1mph 8°C 5°C 7.3°C
08/01/23 01:50 EGVO 080150Z AUTO 20013KT 9999 // BKN016/// 08/06 Q0996 15.0mph 8°C 6°C 7.6°C
08/01/23 01:20 EGVO 080120Z AUTO 20017KT 3900 +RA FEW026/// 08/05 Q0996 +RA 19.6mph 8°C 5°C 7.3°C
08/01/23 00:20 EGVO 080020Z AUTO 19013KT 9999 SCT023/// 08/05 Q0996 15.0mph 8°C 5°C 7.3°C
07/01/23 23:50 EGVO 072350Z AUTO 19012KT 9999 BKN027/// 08/05 Q0997 13.8mph 8°C 5°C 7.3°C
07/01/23 23:20 EGVO 072320Z AUTO 19012KT 9999 BKN017/// 08/06 Q0997 13.8mph 8°C 6°C 7.6°C
07/01/23 22:50 EGVO 072250Z AUTO 19012KT 9999 FEW021/// 08/05 Q0997 13.8mph 8°C 5°C 7.3°C
07/01/23 22:20 EGVO 072220Z AUTO 19014KT 9999 FEW025/// 08/05 Q0997 16.1mph 8°C 5°C 7.3°C
07/01/23 21:50 EGVO 072150Z AUTO 19012KT 9999 FEW023/// 07/05 Q0997 13.8mph 7°C 5°C 6.3°C
07/01/23 21:20 EGVO 072120Z AUTO 19012KT 9999 FEW024/// 07/05 Q0997 13.8mph 7°C 5°C 6.3°C
07/01/23 20:50 EGVO 072050Z AUTO 19012KT 9999 NCD 07/04 Q0997 13.8mph 7°C 4°C 6.0°C
07/01/23 20:20 EGVO 072020Z AUTO 20013KT 9999 NCD 07/04 Q0997 15.0mph 7°C 4°C 6.0°C
07/01/23 19:50 EGVO 071950Z AUTO 21016KT 9999 NCD 07/04 Q0997 18.4mph 7°C 4°C 6.0°C
07/01/23 19:20 EGVO 071920Z AUTO 21016KT 9999 NCD 07/04 Q0997 18.4mph 7°C 4°C 6.0°C
07/01/23 18:50 EGVO 071850Z AUTO 21019G30KT 9999 FEW021/// 07/05 Q0996 21.9mph 34.5mph 7°C 5°C 6.3°C
07/01/23 18:20 EGVO 071820Z AUTO 20016KT 9999 // FEW027/// 07/05 Q0996 18.4mph 7°C 5°C 6.3°C
07/01/23 17:50 EGVO 071750Z AUTO 21018KT 9999 // FEW032/// SCT076/// 07/05 Q0996 20.7mph 7°C 5°C 6.3°C
07/01/23 17:20 EGVO 071720Z AUTO 22027G37KT 9999 -RA SCT014/// OVC032/// 08/05 Q0996 -RA 31.1mph 42.6mph 8°C 5°C 7.3°C
07/01/23 16:50 EGVO 071650Z AUTO 20022KT 9999 // SCT015/// BKN041/// 09/07 Q0995 25.3mph 9°C 7°C 9.0°C
07/01/23 16:20 EGVO 071620Z AUTO 20018G32KT 9999 -DZ BKN013/// OVC029/// 10/08 Q0995 -DZ 20.7mph 36.8mph 10°C 8°C 10.4°C
07/01/23 15:50 EGVO 071550Z AUTO 20020G33KT 6000 RA OVC015/// 10/07 Q0995 RA 23.0mph 38.0mph 10°C 7°C 10.0°C
07/01/23 15:20 EGVO 071520Z AUTO 20018KT 9999 // BKN012/// SCT056/// 10/08 Q0995 20.7mph 10°C 8°C 10.4°C
07/01/23 14:50 EGVO 071450Z AUTO 19017G30KT 9999 RA OVC012/// 10/09 Q0995 RA 19.6mph 34.5mph 10°C 9°C 10.8°C
07/01/23 14:20 EGVO 071420Z AUTO 20018KT 9999 -RA OVC009/// 11/09 Q0996 -RA 20.7mph 11°C 9°C 11.8°C
07/01/23 13:50 EGVO 071350Z AUTO 21019KT 8000 RA OVC006/// 10/09 Q0996 RA 21.9mph 10°C 9°C 10.8°C
07/01/23 12:50 EGVO 071250Z AUTO 18020KT 8000 -RA OVC009/// 10/09 Q0996 -RA 23.0mph 10°C 9°C 10.8°C
07/01/23 12:20 EGVO 071220Z AUTO 18020KT 9999 -RA OVC009/// 10/09 Q0997 -RA 23.0mph 10°C 9°C 10.8°C
07/01/23 11:50 EGVO 071150Z AUTO 18020G33KT 9999 -DZ OVC010/// 11/09 Q0997 -DZ 23.0mph 38.0mph 11°C 9°C 11.8°C
07/01/23 11:20 EGVO 071120Z AUTO 19022G35KT 9999 // OVC011/// 11/09 Q0998 25.3mph 40.3mph 11°C 9°C 11.8°C
07/01/23 10:50 EGVO 071050Z AUTO 18021KT 9999 -DZ OVC010/// 10/09 Q0998 -DZ 24.2mph 10°C 9°C 10.8°C
07/01/23 10:20 EGVO 071020Z AUTO 18021G32KT 9999 -RADZ OVC009/// 10/09 Q0999 -RA -DZ 24.2mph 36.8mph 10°C 9°C 10.8°C
07/01/23 09:50 EGVO 070950Z AUTO 17021KT 7000 -RA OVC009/// 10/09 Q0999 -RA 24.2mph 10°C 9°C 10.8°C